Time;durP1;ratioP1;P1;durP2;ratioP2;P2;SDS_P1;SDS_P2;PMS_P1;PMS_P2;Temp;Humidity;BMP_temperature;BMP_pressure;BME280_temperature;BME280_humidity;BME280_pressure;Samples;Min_cycle;Max_cycle;Signal;HPM_P1;HPM_P2
2023/04/21 00:00:26;;;;;;;;;;;5.20;99.90;;;;;;5037945;28;20347;-64
2023/04/21 00:02:57;;;;;;;;;;;5.20;99.90;;;;;;5043842;28;19925;-63
2023/04/21 00:05:29;;;;;;;;;;;5.20;99.90;;;;;;5048308;28;19925;-64
2023/04/21 00:07:56;;;;;;;;;;;5.20;99.90;;;;;;5048606;28;19959;-63
2023/04/21 00:10:27;;;;;;;;;;;5.10;99.90;;;;;;5043888;28;19929;-63
2023/04/21 00:12:54;;;;;;;;;;;5.00;99.90;;;;;;5042303;28;20027;-63
2023/04/21 00:15:21;;;;;;;;;;;5.00;99.90;;;;;;5036111;28;19932;-64
2023/04/21 00:17:53;;;;;;;;;;;5.10;99.90;;;;;;5039638;28;19924;-63
2023/04/21 00:20:27;;;;;;;;;;;5.10;99.90;;;;;;5024915;28;19929;-63
2023/04/21 00:23:00;;;;;;;;;;;5.10;99.90;;;;;;5040359;28;19971;-63
2023/04/21 00:25:32;;;;;;;;;;;5.10;99.90;;;;;;5037999;28;19932;-64
2023/04/21 00:28:04;;;;;;;;;;;5.10;99.90;;;;;;5041388;28;19967;-63
2023/04/21 00:30:36;;;;;;;;;;;5.10;99.90;;;;;;5039348;28;19964;-63
2023/04/21 00:33:08;;;;;;;;;;;5.10;99.90;;;;;;5044328;28;19925;-63
2023/04/21 00:35:40;;;;;;;;;;;5.10;99.90;;;;;;5039204;28;19925;-63
2023/04/21 00:38:12;;;;;;;;;;;5.10;99.90;;;;;;5019711;28;19936;-63
2023/04/21 00:40:44;;;;;;;;;;;5.20;99.90;;;;;;5038272;28;19929;-63
2023/04/21 00:43:16;;;;;;;;;;;5.20;99.90;;;;;;5037503;28;20041;-63
2023/04/21 00:45:47;;;;;;;;;;;5.20;99.90;;;;;;5042342;28;20009;-64
2023/04/21 00:48:20;;;;;;;;;;;5.20;99.90;;;;;;5043832;28;20404;-63
2023/04/21 00:50:51;;;;;;;;;;;5.20;99.90;;;;;;5046775;28;19924;-63
2023/04/21 00:53:23;;;;;;;;;;;5.30;99.90;;;;;;5049168;28;20007;-63
2023/04/21 00:55:54;;;;;;;;;;;5.30;99.90;;;;;;5047672;28;19928;-63
2023/04/21 00:58:21;;;;;;;;;;;5.30;99.90;;;;;;5033078;28;20019;-63
2023/04/21 01:00:53;;;;;;;;;;;5.30;99.90;;;;;;5035888;28;19986;-63
2023/04/21 01:03:25;;;;;;;;;;;5.30;99.90;;;;;;5037999;28;19932;-63
2023/04/21 01:05:57;;;;;;;;;;;5.30;99.90;;;;;;5039210;28;19932;-63
2023/04/21 01:08:30;;;;;;;;;;;5.30;99.90;;;;;;5040631;28;20004;-63
2023/04/21 01:11:08;;;;;;;;;;;5.30;99.90;;;;;;5041492;28;20547;-63
2023/04/21 01:13:34;;;;;;;;;;;5.30;99.90;;;;;;5038934;28;19925;-63
2023/04/21 01:16:01;;;;;;;;;;;5.30;99.90;;;;;;5030590;28;19925;-63
2023/04/21 01:18:33;;;;;;;;;;;5.30;99.90;;;;;;5028299;28;19983;-63
2023/04/21 01:21:06;;;;;;;;;;;5.30;99.90;;;;;;5034603;28;19925;-63
2023/04/21 01:23:41;;;;;;;;;;;5.40;99.90;;;;;;5035128;28;19925;-63
2023/04/21 01:26:16;;;;;;;;;;;5.40;99.90;;;;;;5036764;28;19932;-63
2023/04/21 01:28:48;;;;;;;;;;;5.40;99.90;;;;;;5036557;28;19925;-63
2023/04/21 01:31:20;;;;;;;;;;;5.30;99.90;;;;;;5038669;28;20390;-63
2023/04/21 01:33:52;;;;;;;;;;;5.30;99.90;;;;;;5039825;28;19928;-63
2023/04/21 01:36:18;;;;;;;;;;;5.40;99.90;;;;;;5045286;28;19932;-63
2023/04/21 01:38:51;;;;;;;;;;;5.40;99.90;;;;;;5044252;28;20332;-63
2023/04/21 01:41:22;;;;;;;;;;;5.40;99.90;;;;;;5038078;28;20297;-63
2023/04/21 01:43:54;;;;;;;;;;;5.40;99.90;;;;;;5036340;28;19932;-64
2023/04/21 01:46:26;;;;;;;;;;;5.40;99.90;;;;;;5034976;28;20397;-63
2023/04/21 01:48:53;;;;;;;;;;;5.40;99.90;;;;;;5035062;28;19929;-63
2023/04/21 01:51:26;;;;;;;;;;;5.40;99.90;;;;;;5039960;28;19925;-63
2023/04/21 01:53:58;;;;;;;;;;;5.40;99.90;;;;;;5041214;28;19929;-63
2023/04/21 01:56:29;;;;;;;;;;;5.40;99.90;;;;;;5043778;28;20384;-63
2023/04/21 01:59:01;;;;;;;;;;;5.50;99.90;;;;;;5025195;28;19932;-63
2023/04/21 02:01:34;;;;;;;;;;;5.50;99.90;;;;;;5030842;28;19971;-63
2023/04/21 02:04:06;;;;;;;;;;;5.50;99.90;;;;;;5014495;28;19936;-63
2023/04/21 02:06:38;;;;;;;;;;;5.50;99.90;;;;;;5034946;28;19932;-63
2023/04/21 02:09:10;;;;;;;;;;;5.50;99.90;;;;;;5034676;28;19929;-63
2023/04/21 02:11:41;;;;;;;;;;;5.40;99.90;;;;;;5035374;28;19937;-63
2023/04/21 02:14:13;;;;;;;;;;;5.40;99.90;;;;;;5039371;28;19978;-63
2023/04/21 02:16:44;;;;;;;;;;;5.40;99.90;;;;;;5035316;28;19925;-63
2023/04/21 02:19:16;;;;;;;;;;;5.40;99.90;;;;;;5031116;28;20301;-63
2023/04/21 02:21:43;;;;;;;;;;;5.50;99.90;;;;;;5031078;28;20423;-63
2023/04/21 02:24:10;;;;;;;;;;;5.40;99.90;;;;;;5031825;28;20411;-63
2023/04/21 02:26:41;;;;;;;;;;;5.40;99.90;;;;;;5037503;28;19937;-63
2023/04/21 02:29:13;;;;;;;;;;;5.40;99.90;;;;;;5039869;28;19933;-63
2023/04/21 02:31:40;;;;;;;;;;;5.40;99.90;;;;;;5041416;28;19933;-64
2023/04/21 02:34:12;;;;;;;;;;;5.40;99.90;;;;;;5038659;28;19983;-63
2023/04/21 02:36:44;;;;;;;;;;;5.40;99.90;;;;;;5040946;28;19928;-63
2023/04/21 02:39:15;;;;;;;;;;;5.40;99.90;;;;;;5035823;28;19924;-63
2023/04/21 02:41:42;;;;;;;;;;;5.30;99.90;;;;;;5036557;28;19929;-63
2023/04/21 02:44:09;;;;;;;;;;;5.30;99.90;;;;;;5034585;28;19925;-63
2023/04/21 02:46:40;;;;;;;;;;;5.30;99.90;;;;;;5038480;28;19925;-63
2023/04/21 02:49:13;;;;;;;;;;;5.30;99.90;;;;;;5038173;28;19925;-63
2023/04/21 02:51:44;;;;;;;;;;;5.30;99.90;;;;;;5041700;28;19929;-63
2023/04/21 02:54:16;;;;;;;;;;;5.30;99.90;;;;;;5037833;28;19925;-63
2023/04/21 02:56:43;;;;;;;;;;;5.30;99.90;;;;;;5039585;28;19928;-64
2023/04/21 02:59:15;;;;;;;;;;;5.30;99.90;;;;;;5025591;28;19924;-64
2023/04/21 03:01:48;;;;;;;;;;;5.20;99.90;;;;;;5036730;28;20325;-63
2023/04/21 03:04:19;;;;;;;;;;;5.10;99.90;;;;;;5035410;28;19925;-64
2023/04/21 03:06:51;;;;;;;;;;;5.10;99.90;;;;;;5039968;28;19936;-63
2023/04/21 03:09:23;;;;;;;;;;;5.10;99.90;;;;;;5042135;28;19925;-63
2023/04/21 03:11:55;;;;;;;;;;;5.10;99.90;;;;;;5043522;28;19937;-63
2023/04/21 03:14:27;;;;;;;;;;;5.10;99.90;;;;;;5040849;28;19940;-63
2023/04/21 03:17:00;;;;;;;;;;;5.10;99.90;;;;;;5036132;28;19977;-63
2023/04/21 03:19:32;;;;;;;;;;;5.20;99.90;;;;;;5022729;28;19933;-63
2023/04/21 03:21:58;;;;;;;;;;;5.10;99.90;;;;;;5040110;28;19932;-63
2023/04/21 03:24:30;;;;;;;;;;;5.20;99.90;;;;;;5053461;28;19925;-63
2023/04/21 03:27:04;;;;;;;;;;;5.20;99.90;;;;;;5053501;28;19929;-63
2023/04/21 03:29:36;;;;;;;;;;;5.20;99.90;;;;;;5014360;28;19925;-63
2023/04/21 03:32:07;;;;;;;;;;;5.20;99.90;;;;;;5039662;28;19936;-63
2023/04/21 03:34:39;;;;;;;;;;;5.30;99.90;;;;;;5042375;28;20302;-63
2023/04/21 03:37:12;;;;;;;;;;;5.30;99.90;;;;;;5042740;28;19924;-63
2023/04/21 03:39:44;;;;;;;;;;;5.30;99.90;;;;;;5022811;28;20046;-63
2023/04/21 03:42:11;;;;;;;;;;;5.30;99.90;;;;;;5038401;28;20364;-63
2023/04/21 03:44:43;;;;;;;;;;;5.30;99.90;;;;;;5040530;28;19925;-63
2023/04/21 03:47:15;;;;;;;;;;;5.30;99.90;;;;;;5037134;28;19948;-63
2023/04/21 03:49:47;;;;;;;;;;;5.30;99.90;;;;;;5040347;28;20586;-63
2023/04/21 03:52:18;;;;;;;;;;;5.40;99.90;;;;;;5036088;28;19960;-63
2023/04/21 03:54:50;;;;;;;;;;;5.40;99.90;;;;;;5040321;28;19991;-63
2023/04/21 03:57:22;;;;;;;;;;;5.40;99.90;;;;;;5043108;28;20351;-63
2023/04/21 03:59:53;;;;;;;;;;;5.40;99.90;;;;;;5037543;28;19925;-63
2023/04/21 04:02:25;;;;;;;;;;;5.40;99.90;;;;;;5041014;28;19929;-63
2023/04/21 04:04:57;;;;;;;;;;;5.30;99.90;;;;;;5042350;28;19932;-63
2023/04/21 04:07:28;;;;;;;;;;;5.40;99.90;;;;;;5037885;28;19984;-63
2023/04/21 04:10:00;;;;;;;;;;;5.30;99.90;;;;;;5037736;28;19982;-63
2023/04/21 04:12:32;;;;;;;;;;;5.40;99.90;;;;;;5036382;28;20409;-64
2023/04/21 04:15:03;;;;;;;;;;;5.40;99.90;;;;;;5020385;28;20301;-65
2023/04/21 04:17:35;;;;;;;;;;;5.30;99.90;;;;;;5041229;28;19925;-64
2023/04/21 04:20:03;;;;;;;;;;;5.30;99.90;;;;;;5042961;28;19936;-66
2023/04/21 04:22:35;;;;;;;;;;;5.30;99.90;;;;;;5040374;28;19925;-64
2023/04/21 04:25:07;;;;;;;;;;;5.30;99.90;;;;;;5039332;28;19929;-64
2023/04/21 04:27:34;;;;;;;;;;;5.30;99.90;;;;;;5034958;28;19951;-64
2023/04/21 04:30:06;;;;;;;;;;;5.30;99.90;;;;;;5038943;28;19929;-64
2023/04/21 04:32:38;;;;;;;;;;;5.30;99.90;;;;;;5040952;28;19925;-63
2023/04/21 04:35:11;;;;;;;;;;;5.30;99.90;;;;;;5038547;28;19929;-64
2023/04/21 04:37:44;;;;;;;;;;;5.30;99.90;;;;;;5039294;28;19924;-63
2023/04/21 04:40:16;;;;;;;;;;;5.30;99.90;;;;;;5035485;28;19929;-63
2023/04/21 04:42:44;;;;;;;;;;;5.30;99.90;;;;;;5038698;28;19932;-65
2023/04/21 04:45:16;;;;;;;;;;;5.30;99.90;;;;;;5037108;28;20302;-63
2023/04/21 04:47:48;;;;;;;;;;;5.20;99.90;;;;;;5042203;28;19933;-63
2023/04/21 04:50:20;;;;;;;;;;;5.20;99.90;;;;;;5039967;28;19935;-63
2023/04/21 04:52:52;;;;;;;;;;;5.20;99.90;;;;;;5033382;28;19928;-63
2023/04/21 04:55:24;;;;;;;;;;;5.20;99.90;;;;;;5038247;28;19925;-63
2023/04/21 04:57:56;;;;;;;;;;;5.20;99.90;;;;;;5036338;28;19925;-63
2023/04/21 05:00:28;;;;;;;;;;;5.20;99.90;;;;;;5038308;28;19933;-63
2023/04/21 05:02:59;;;;;;;;;;;5.20;99.90;;;;;;5039699;28;19925;-63
2023/04/21 05:05:31;;;;;;;;;;;5.10;99.90;;;;;;5029973;28;20448;-63
2023/04/21 05:08:04;;;;;;;;;;;5.00;99.90;;;;;;5037995;28;19925;-63
2023/04/21 05:10:36;;;;;;;;;;;5.00;99.90;;;;;;5031210;28;20467;-63
2023/04/21 05:13:03;;;;;;;;;;;5.00;99.90;;;;;;5035108;28;19928;-63
2023/04/21 05:15:35;;;;;;;;;;;5.00;99.90;;;;;;5017354;28;20028;-63
2023/04/21 05:18:07;;;;;;;;;;;5.00;99.90;;;;;;5036643;28;19924;-63
2023/04/21 05:20:40;;;;;;;;;;;5.00;99.90;;;;;;5039009;28;21202;-63
2023/04/21 05:23:11;;;;;;;;;;;5.10;99.90;;;;;;5038535;28;19932;-63
2023/04/21 05:25:43;;;;;;;;;;;5.10;99.90;;;;;;5038342;28;20409;-63
2023/04/21 05:28:15;;;;;;;;;;;5.10;99.90;;;;;;5043326;28;19962;-63
2023/04/21 05:30:47;;;;;;;;;;;5.10;99.90;;;;;;5043268;28;19972;-63
2023/04/21 05:33:18;;;;;;;;;;;5.20;99.90;;;;;;5043867;28;20356;-63
2023/04/21 05:35:50;;;;;;;;;;;5.20;99.90;;;;;;5037131;28;19933;-63
2023/04/21 05:38:22;;;;;;;;;;;5.20;99.90;;;;;;5041646;28;19925;-63
2023/04/21 05:40:57;;;;;;;;;;;5.20;99.90;;;;;;5041099;28;19929;-63
2023/04/21 05:43:32;;;;;;;;;;;5.20;99.90;;;;;;5035670;28;20472;-63
2023/04/21 05:46:08;;;;;;;;;;;5.20;99.90;;;;;;5039491;28;19948;-63
2023/04/21 05:48:41;;;;;;;;;;;5.20;99.90;;;;;;5036499;28;20106;-63
2023/04/21 05:51:16;;;;;;;;;;;5.20;99.90;;;;;;5044135;28;19925;-63
2023/04/21 05:53:48;;;;;;;;;;;5.10;99.90;;;;;;5045068;28;19933;-63
2023/04/21 05:56:21;;;;;;;;;;;5.20;99.90;;;;;;5037897;28;19928;-63
2023/04/21 05:58:53;;;;;;;;;;;5.20;99.90;;;;;;5044063;28;19974;-64
2023/04/21 06:01:26;;;;;;;;;;;5.20;99.90;;;;;;5044614;28;19928;-64
2023/04/21 06:03:54;;;;;;;;;;;5.20;99.90;;;;;;5044935;28;20062;-63
2023/04/21 06:06:27;;;;;;;;;;;5.20;99.90;;;;;;5039241;28;19933;-63
2023/04/21 06:08:58;;;;;;;;;;;5.20;99.90;;;;;;5040820;28;19933;-63
2023/04/21 06:11:30;;;;;;;;;;;5.30;99.90;;;;;;5042717;28;20309;-63
2023/04/21 06:14:02;;;;;;;;;;;5.30;99.90;;;;;;5040504;28;20073;-63
2023/04/21 06:16:35;;;;;;;;;;;5.30;99.90;;;;;;5047641;28;20933;-63
2023/04/21 06:19:06;;;;;;;;;;;5.30;99.90;;;;;;5027134;28;20020;-63
2023/04/21 06:21:38;;;;;;;;;;;5.30;99.90;;;;;;5045092;28;19933;-63
2023/04/21 06:24:10;;;;;;;;;;;5.40;99.90;;;;;;5046306;28;19969;-63
2023/04/21 06:26:42;;;;;;;;;;;5.40;99.90;;;;;;5042090;28;20020;-63
2023/04/21 06:29:14;;;;;;;;;;;5.50;99.90;;;;;;5040030;28;19924;-63
2023/04/21 06:31:40;;;;;;;;;;;5.60;99.90;;;;;;5041274;28;19933;-63
2023/04/21 06:34:12;;;;;;;;;;;5.60;99.90;;;;;;5045050;28;20305;-63
2023/04/21 06:36:44;;;;;;;;;;;5.70;99.90;;;;;;5040758;28;19925;-63
2023/04/21 06:39:11;;;;;;;;;;;5.70;99.90;;;;;;5044361;28;19933;-63
2023/04/21 06:41:43;;;;;;;;;;;5.70;99.90;;;;;;5032482;28;19929;-63
2023/04/21 06:44:16;;;;;;;;;;;5.70;99.90;;;;;;5044256;28;19925;-63
2023/04/21 06:46:43;;;;;;;;;;;5.70;99.90;;;;;;5046062;28;19925;-63
2023/04/21 06:49:14;;;;;;;;;;;5.80;99.90;;;;;;5044041;28;20016;-63
2023/04/21 06:51:46;;;;;;;;;;;5.90;99.90;;;;;;5043146;28;19930;-63
2023/04/21 06:54:13;;;;;;;;;;;5.90;99.90;;;;;;5041253;28;20016;-63
2023/04/21 06:56:45;;;;;;;;;;;6.00;99.90;;;;;;5044180;28;21357;-64
2023/04/21 06:59:17;;;;;;;;;;;6.10;99.90;;;;;;5044310;28;19987;-63
2023/04/21 07:01:51;;;;;;;;;;;6.10;99.90;;;;;;5038511;28;20455;-63
2023/04/21 07:04:22;;;;;;;;;;;6.20;99.90;;;;;;5044655;28;19924;-64
2023/04/21 07:06:54;;;;;;;;;;;6.30;99.90;;;;;;5036505;28;19948;-64
2023/04/21 07:09:21;;;;;;;;;;;6.60;99.90;;;;;;5040169;28;19925;-64
2023/04/21 07:11:54;;;;;;;;;;;6.80;99.90;;;;;;5044939;28;20014;-64
2023/04/21 07:14:20;;;;;;;;;;;6.90;99.90;;;;;;5041329;28;20332;-64
2023/04/21 07:16:47;;;;;;;;;;;6.90;99.90;;;;;;5040913;28;19988;-64
2023/04/21 07:19:19;;;;;;;;;;;6.90;99.90;;;;;;5043849;28;20520;-64
2023/04/21 07:21:50;;;;;;;;;;;6.80;99.90;;;;;;5045242;28;19931;-63
2023/04/21 07:24:22;;;;;;;;;;;6.70;99.90;;;;;;5041700;28;19929;-63
2023/04/21 07:26:54;;;;;;;;;;;6.80;99.90;;;;;;5049658;28;19925;-63
2023/04/21 07:29:25;;;;;;;;;;;6.70;99.90;;;;;;5041953;28;20035;-63
2023/04/21 07:31:57;;;;;;;;;;;6.70;99.90;;;;;;5036972;28;19924;-63
2023/04/21 07:34:29;;;;;;;;;;;6.90;99.90;;;;;;5045818;28;19959;-63
2023/04/21 07:37:00;;;;;;;;;;;7.00;99.90;;;;;;5039981;28;19932;-63
2023/04/21 07:39:32;;;;;;;;;;;7.10;99.90;;;;;;5028963;28;19933;-64
2023/04/21 07:42:07;;;;;;;;;;;7.20;99.90;;;;;;5044303;28;19979;-63
2023/04/21 07:44:38;;;;;;;;;;;7.20;99.90;;;;;;5043168;28;20547;-64
2023/04/21 07:47:05;;;;;;;;;;;7.20;99.90;;;;;;5041139;28;19929;-63
2023/04/21 07:49:37;;;;;;;;;;;7.30;99.90;;;;;;5048231;28;19937;-63
2023/04/21 07:52:08;;;;;;;;;;;7.40;99.90;;;;;;5040887;28;20352;-64
2023/04/21 07:54:40;;;;;;;;;;;7.50;99.90;;;;;;5046687;28;19929;-63
2023/04/21 07:57:12;;;;;;;;;;;7.60;99.90;;;;;;5042942;28;20002;-64
2023/04/21 07:59:43;;;;;;;;;;;7.80;99.90;;;;;;5027518;28;20475;-64
2023/04/21 08:02:15;;;;;;;;;;;7.90;99.90;;;;;;5039576;28;19928;-63
2023/04/21 08:04:47;;;;;;;;;;;8.10;99.90;;;;;;5041763;28;19925;-63
2023/04/21 08:07:18;;;;;;;;;;;8.20;99.90;;;;;;5043998;28;19929;-63
2023/04/21 08:09:50;;;;;;;;;;;8.30;99.90;;;;;;5043573;28;19983;-64
2023/04/21 08:12:34;;;;;;;;;;;8.40;99.90;;;;;;5044108;28;19917;-64
2023/04/21 08:15:19;;;;;;;;;;;8.50;99.90;;;;;;5047265;28;19921;-63
2023/04/21 08:18:03;;;;;;;;;;;8.70;99.90;;;;;;5044153;28;19920;-64
2023/04/21 08:20:35;;;;;;;;;;;8.90;99.90;;;;;;5035022;28;19929;-64
2023/04/21 08:23:07;;;;;;;;;;;9.00;99.90;;;;;;5035955;28;19932;-64
2023/04/21 08:25:38;;;;;;;;;;;9.10;99.90;;;;;;5039069;28;20360;-64
2023/04/21 08:28:10;;;;;;;;;;;9.20;99.90;;;;;;5039206;28;19925;-64
2023/04/21 08:30:42;;;;;;;;;;;9.30;99.90;;;;;;5043234;28;19979;-64
2023/04/21 08:33:13;;;;;;;;;;;9.30;99.90;;;;;;5047799;28;20389;-64
2023/04/21 08:35:45;;;;;;;;;;;9.50;99.90;;;;;;5040999;28;19925;-64
2023/04/21 08:38:12;;;;;;;;;;;9.60;99.90;;;;;;5043258;28;19929;-63
2023/04/21 08:40:43;;;;;;;;;;;9.70;99.90;;;;;;5043385;28;19925;-65
2023/04/21 08:43:15;;;;;;;;;;;9.70;99.90;;;;;;5034146;28;19932;-64
2023/04/21 08:45:42;;;;;;;;;;;9.90;99.90;;;;;;5038061;28;20357;-64
2023/04/21 08:48:17;;;;;;;;;;;9.90;99.90;;;;;;5039262;28;20439;-64
2023/04/21 08:50:50;;;;;;;;;;;9.90;99.90;;;;;;5040430;28;19936;-64
2023/04/21 08:53:22;;;;;;;;;;;9.90;99.90;;;;;;5028296;28;19980;-63
2023/04/21 08:55:55;;;;;;;;;;;9.90;99.90;;;;;;5042190;28;19925;-64
2023/04/21 08:58:21;;;;;;;;;;;10.00;99.90;;;;;;5035511;28;19932;-64
2023/04/21 09:00:53;;;;;;;;;;;10.20;99.90;;;;;;5038577;28;19928;-64
2023/04/21 09:03:30;;;;;;;;;;;10.30;99.90;;;;;;5041642;28;20397;-64
2023/04/21 09:05:58;;;;;;;;;;;10.40;99.90;;;;;;5038901;28;19956;-64
2023/04/21 09:08:31;;;;;;;;;;;10.50;99.90;;;;;;5043557;28;19929;-64
2023/04/21 09:11:00;;;;;;;;;;;10.50;99.90;;;;;;5039316;28;20515;-64
2023/04/21 09:13:31;;;;;;;;;;;10.50;99.90;;;;;;5041549;28;20389;-64
2023/04/21 09:16:04;;;;;;;;;;;10.60;99.90;;;;;;5038592;28;19979;-64
2023/04/21 09:18:38;;;;;;;;;;;10.80;99.90;;;;;;5058434;28;19925;-64
2023/04/21 09:21:11;;;;;;;;;;;10.80;99.90;;;;;;5048967;28;19925;-64
2023/04/21 09:23:45;;;;;;;;;;;10.90;99.90;;;;;;5046737;28;19937;-64
2023/04/21 09:26:21;;;;;;;;;;;10.90;99.90;;;;;;5027191;28;19929;-64
2023/04/21 09:28:54;;;;;;;;;;;11.00;99.90;;;;;;5033574;28;20352;-64
2023/04/21 09:31:29;;;;;;;;;;;11.10;99.90;;;;;;5036339;28;19929;-64
2023/04/21 09:34:00;;;;;;;;;;;11.30;99.90;;;;;;5038363;28;20348;-64
2023/04/21 09:36:32;;;;;;;;;;;11.40;99.90;;;;;;5039950;28;19925;-64
2023/04/21 09:39:04;;;;;;;;;;;11.50;99.90;;;;;;5039112;28;19925;-64
2023/04/21 09:41:36;;;;;;;;;;;11.70;99.90;;;;;;5039826;28;20385;-64
2023/04/21 09:44:08;;;;;;;;;;;12.00;99.90;;;;;;5029457;28;19931;-64
2023/04/21 09:46:42;;;;;;;;;;;12.10;99.90;;;;;;5034338;28;19929;-64
2023/04/21 09:49:15;;;;;;;;;;;12.30;99.90;;;;;;5034462;28;19928;-64
2023/04/21 09:51:47;;;;;;;;;;;12.50;99.90;;;;;;5031976;28;19925;-64
2023/04/21 09:54:19;;;;;;;;;;;12.60;99.90;;;;;;5038405;28;19975;-64
2023/04/21 09:56:52;;;;;;;;;;;12.70;99.90;;;;;;5045195;28;19932;-64
2023/04/21 09:59:27;;;;;;;;;;;12.80;99.90;;;;;;5039911;28;19925;-64
2023/04/21 10:01:59;;;;;;;;;;;12.90;99.90;;;;;;5040173;28;19933;-64
2023/04/21 10:04:32;;;;;;;;;;;13.00;99.90;;;;;;5040499;28;19930;-64
2023/04/21 10:07:05;;;;;;;;;;;13.10;99.90;;;;;;5040960;28;19936;-64
2023/04/21 10:09:44;;;;;;;;;;;13.30;99.90;;;;;;5039755;28;19924;-64
2023/04/21 10:12:17;;;;;;;;;;;13.40;99.90;;;;;;5033869;28;19935;-64
2023/04/21 10:14:52;;;;;;;;;;;13.40;99.90;;;;;;5035427;28;19933;-64
2023/04/21 10:17:24;;;;;;;;;;;13.40;99.90;;;;;;5035189;28;19929;-64
2023/04/21 10:19:57;;;;;;;;;;;13.40;99.90;;;;;;5038751;28;19933;-64
2023/04/21 10:22:30;;;;;;;;;;;13.50;99.90;;;;;;5039879;28;19925;-64
2023/04/21 10:25:03;;;;;;;;;;;13.60;99.90;;;;;;5037026;28;19925;-64
2023/04/21 10:27:35;;;;;;;;;;;13.70;99.90;;;;;;5037728;28;19925;-64
2023/04/21 10:30:18;;;;;;;;;;;13.70;99.90;;;;;;5043653;28;19929;-64
2023/04/21 10:33:03;;;;;;;;;;;13.70;99.90;;;;;;5031958;28;19929;-64
2023/04/21 10:35:53;;;;;;;;;;;13.80;99.90;;;;;;5036988;28;19925;-63
2023/04/21 10:38:39;;;;;;;;;;;13.90;99.90;;;;;;5034465;28;19952;-64
2023/04/21 10:41:26;;;;;;;;;;;14.00;99.90;;;;;;5044372;28;19936;-64
2023/04/21 10:43:52;;;;;;;;;;;14.10;99.90;;;;;;5036479;28;19932;-64
2023/04/21 10:46:34;;;;;;;;;;;14.30;99.90;;;;;;5041149;28;19950;-64
2023/04/21 10:49:07;;;;;;;;;;;14.40;99.90;;;;;;5041013;28;19932;-64
2023/04/21 10:52:01;;;;;;;;;;;14.50;99.90;;;;;;5038689;28;19975;-63
2023/04/21 10:54:40;;;;;;;;;;;14.60;99.90;;;;;;5054967;28;19929;-64
2023/04/21 10:57:16;;;;;;;;;;;14.60;99.90;;;;;;5041883;28;19940;-64
2023/04/21 10:59:44;;;;;;;;;;;14.70;99.90;;;;;;5043176;28;19925;-64
2023/04/21 11:02:16;;;;;;;;;;;14.80;99.90;;;;;;5039074;28;19936;-64
2023/04/21 11:04:51;;;;;;;;;;;14.80;99.90;;;;;;5045563;28;19933;-64
2023/04/21 11:07:24;;;;;;;;;;;14.70;99.90;;;;;;5038061;28;20312;-64
2023/04/21 11:09:57;;;;;;;;;;;14.70;99.90;;;;;;5043377;28;19925;-63
2023/04/21 11:12:30;;;;;;;;;;;14.80;99.90;;;;;;5039740;28;19929;-64
2023/04/21 11:15:03;;;;;;;;;;;15.00;99.90;;;;;;5033237;28;19969;-64
2023/04/21 11:17:35;;;;;;;;;;;15.10;99.90;;;;;;5037221;28;19947;-64
2023/04/21 11:20:08;;;;;;;;;;;15.30;99.90;;;;;;5038215;28;19929;-64
2023/04/21 11:22:39;;;;;;;;;;;15.40;99.90;;;;;;5039399;28;19929;-64
2023/04/21 11:25:17;;;;;;;;;;;15.50;99.90;;;;;;5034810;28;19932;-64
2023/04/21 11:27:55;;;;;;;;;;;15.60;99.90;;;;;;5039097;28;19936;-64
2023/04/21 11:30:33;;;;;;;;;;;15.60;99.90;;;;;;5038396;28;19940;-64
2023/04/21 11:33:05;;;;;;;;;;;15.70;99.90;;;;;;5040054;28;20016;-64
2023/04/21 11:35:39;;;;;;;;;;;15.70;99.90;;;;;;5033456;28;19925;-64
2023/04/21 11:38:13;;;;;;;;;;;15.60;99.90;;;;;;5036591;28;19933;-64
2023/04/21 11:40:46;;;;;;;;;;;15.40;99.90;;;;;;5039586;28;19925;-64
2023/04/21 11:43:19;;;;;;;;;;;15.40;99.90;;;;;;5039966;28;19954;-64
2023/04/21 11:45:50;;;;;;;;;;;15.50;99.90;;;;;;5038173;28;19929;-64
2023/04/21 11:48:28;;;;;;;;;;;15.60;99.90;;;;;;5039006;28;19983;-64
2023/04/21 11:51:00;;;;;;;;;;;15.70;99.90;;;;;;5038327;28;20393;-64
2023/04/21 11:53:31;;;;;;;;;;;15.70;99.90;;;;;;5038956;28;19929;-63
2023/04/21 11:56:04;;;;;;;;;;;15.80;99.90;;;;;;5040177;28;19975;-64
2023/04/21 11:58:36;;;;;;;;;;;15.80;99.90;;;;;;5036847;28;19929;-64
2023/04/21 12:01:07;;;;;;;;;;;15.70;99.90;;;;;;5036259;28;20336;-64
2023/04/21 12:03:39;;;;;;;;;;;15.70;99.90;;;;;;5037690;28;20417;-64
2023/04/21 12:06:18;;;;;;;;;;;15.90;99.90;;;;;;5041617;28;19929;-64
2023/04/21 12:09:01;;;;;;;;;;;16.00;99.90;;;;;;5034271;28;19997;-64
2023/04/21 12:11:33;;;;;;;;;;;16.20;99.90;;;;;;5040993;28;19925;-64
2023/04/21 12:14:06;;;;;;;;;;;16.30;99.90;;;;;;5041121;28;19928;-64
2023/04/21 12:16:38;;;;;;;;;;;16.60;99.90;;;;;;5040371;28;19928;-63
2023/04/21 12:19:10;;;;;;;;;;;16.70;99.90;;;;;;5035348;28;19925;-64
2023/04/21 12:21:41;;;;;;;;;;;16.70;99.90;;;;;;5030108;28;19940;-64
2023/04/21 12:24:13;;;;;;;;;;;16.90;99.90;;;;;;5035939;28;19929;-64
2023/04/21 12:26:45;;;;;;;;;;;16.90;99.90;;;;;;5026650;28;19929;-63
2023/04/21 12:29:17;;;;;;;;;;;17.10;99.90;;;;;;5041468;28;19925;-64
2023/04/21 12:31:49;;;;;;;;;;;17.10;99.90;;;;;;5030909;28;19925;-63
2023/04/21 12:34:16;;;;;;;;;;;17.20;99.90;;;;;;5032624;28;19933;-64
2023/04/21 12:36:48;;;;;;;;;;;17.30;99.90;;;;;;5033708;28;19932;-64
2023/04/21 12:39:20;;;;;;;;;;;17.30;99.90;;;;;;5031925;28;19925;-64
2023/04/21 12:41:52;;;;;;;;;;;17.30;99.90;;;;;;5034164;28;20018;-64
2023/04/21 12:44:24;;;;;;;;;;;17.50;99.90;;;;;;5036531;28;19928;-64
2023/04/21 12:46:56;;;;;;;;;;;17.50;99.90;;;;;;5036069;28;20390;-64
2023/04/21 12:49:28;;;;;;;;;;;17.50;99.90;;;;;;5033720;28;19933;-64
2023/04/21 12:51:55;;;;;;;;;;;17.60;99.90;;;;;;5035004;28;20278;-64
2023/04/21 12:54:26;;;;;;;;;;;17.60;99.90;;;;;;5037069;28;19932;-64
2023/04/21 12:56:58;;;;;;;;;;;17.70;99.90;;;;;;5036446;28;19933;-63
2023/04/21 12:59:30;;;;;;;;;;;17.80;99.90;;;;;;5022399;28;19993;-64
2023/04/21 13:02:01;;;;;;;;;;;18.00;99.90;;;;;;5042245;28;19935;-65
2023/04/21 13:04:28;;;;;;;;;;;18.10;99.90;;;;;;5035489;28;20354;-67
2023/04/21 13:07:00;;;;;;;;;;;18.20;99.90;;;;;;5027038;28;19929;-69
2023/04/21 13:09:31;;;;;;;;;;;18.30;99.90;;;;;;5033821;28;20344;-65
2023/04/21 13:12:03;;;;;;;;;;;18.20;99.90;;;;;;5028156;28;19925;-65
2023/04/21 13:14:30;;;;;;;;;;;18.10;99.90;;;;;;5037033;28;20024;-65
2023/04/21 13:17:02;;;;;;;;;;;18.10;99.90;;;;;;5035432;28;20405;-64
2023/04/21 13:19:33;;;;;;;;;;;18.20;99.90;;;;;;5037963;28;20356;-64
2023/04/21 13:22:00;;;;;;;;;;;18.30;99.90;;;;;;5037209;28;19925;-64
2023/04/21 13:24:32;;;;;;;;;;;18.50;99.90;;;;;;5037762;28;19929;-64
2023/04/21 13:27:00;;;;;;;;;;;18.60;99.90;;;;;;5035700;28;19933;-64
2023/04/21 13:29:33;;;;;;;;;;;18.70;99.90;;;;;;5034444;28;19994;-64
2023/04/21 13:32:06;;;;;;;;;;;18.80;99.90;;;;;;5036185;28;19926;-64
2023/04/21 13:34:37;;;;;;;;;;;19.00;99.90;;;;;;5036953;28;20401;-64
2023/04/21 13:37:04;;;;;;;;;;;19.10;99.90;;;;;;5037411;28;19929;-64
2023/04/21 13:39:36;;;;;;;;;;;19.30;99.90;;;;;;5040423;28;19925;-63
2023/04/21 13:42:08;;;;;;;;;;;19.40;99.90;;;;;;5034845;28;20408;-63
2023/04/21 13:44:39;;;;;;;;;;;19.50;99.90;;;;;;5039274;28;19924;-64
2023/04/21 13:47:11;;;;;;;;;;;19.60;99.90;;;;;;5038833;28;20360;-64
2023/04/21 13:49:43;;;;;;;;;;;19.70;99.90;;;;;;5042622;28;19929;-64
2023/04/21 13:52:15;;;;;;;;;;;19.70;99.90;;;;;;5038400;28;19960;-64
2023/04/21 13:54:47;;;;;;;;;;;19.80;99.90;;;;;;5029580;28;19935;-64
2023/04/21 13:57:19;;;;;;;;;;;19.90;99.90;;;;;;5034288;28;19932;-64
2023/04/21 13:59:51;;;;;;;;;;;20.00;99.90;;;;;;5026693;28;19930;-64
2023/04/21 14:02:24;;;;;;;;;;;20.10;99.90;;;;;;5017464;28;20340;-64
2023/04/21 14:04:56;;;;;;;;;;;20.20;99.90;;;;;;5038320;28;19928;-64
2023/04/21 14:07:22;;;;;;;;;;;20.30;99.90;;;;;;5036425;28;19935;-64
2023/04/21 14:09:54;;;;;;;;;;;20.50;99.90;;;;;;5037808;28;20397;-65
2023/04/21 14:12:26;;;;;;;;;;;20.80;99.90;;;;;;5038466;28;19929;-64
2023/04/21 14:14:52;;;;;;;;;;;20.80;99.90;;;;;;5040798;28;19932;-64
2023/04/21 14:17:24;;;;;;;;;;;20.90;99.90;;;;;;5034091;28;19925;-64
2023/04/21 14:19:56;;;;;;;;;;;21.20;99.90;;;;;;5041889;28;20436;-64
2023/04/21 14:22:27;;;;;;;;;;;21.30;99.90;;;;;;5040422;28;20542;-65
2023/04/21 14:24:59;;;;;;;;;;;21.40;99.90;;;;;;5027827;28;19929;-64
2023/04/21 14:27:31;;;;;;;;;;;21.60;99.90;;;;;;5040787;28;19928;-64
2023/04/21 14:29:59;;;;;;;;;;;21.70;99.90;;;;;;5038037;28;19937;-64
2023/04/21 14:32:25;;;;;;;;;;;21.70;99.90;;;;;;5041712;28;19925;-64
2023/04/21 14:34:59;;;;;;;;;;;22.00;99.90;;;;;;5017874;28;19929;-64
2023/04/21 14:37:31;;;;;;;;;;;22.20;99.90;;;;;;5022662;28;19982;-64
2023/04/21 14:40:06;;;;;;;;;;;22.40;99.90;;;;;;5036207;28;19936;-64
2023/04/21 14:42:37;;;;;;;;;;;22.60;99.90;;;;;;5032830;28;19932;-64
2023/04/21 14:45:09;;;;;;;;;;;22.90;99.90;;;;;;5037169;28;19996;-64
2023/04/21 14:47:41;;;;;;;;;;;23.00;99.90;;;;;;5033747;28;19970;-64
2023/04/21 14:50:12;;;;;;;;;;;23.20;99.90;;;;;;5045057;28;19929;-64